Time;durP1;ratioP1;P1;durP2;ratioP2;P2;SDS_P1;SDS_P2;PMS_P1;PMS_P2;Temp;Humidity;BMP_temperature;BMP_pressure;BME280_temperature;BME280_humidity;BME280_pressure;Samples;Min_cycle;Max_cycle;Signal;HPM_P1;HPM_P2
2022/03/30 00:00:21;;;;;;;0.50;0.30;;;;;;;3.20;76.42;100205.84;5073514;28;20472;-75
2022/03/30 00:02:48;;;;;;;1.70;1.60;;;;;;;3.16;76.82;100201.28;5073589;28;20978;-74
2022/03/30 00:05:15;;;;;;;0.40;0.30;;;;;;;3.02;77.71;100206.31;5074161;28;20448;-74
2022/03/30 00:07:41;;;;;;;0.40;0.30;;;;;;;3.02;77.88;100206.31;5073736;28;20445;-74
2022/03/30 00:10:08;;;;;;;0.40;0.30;;;;;;;2.97;77.86;100203.59;5073544;28;20471;-75
2022/03/30 00:12:35;;;;;;;0.40;0.30;;;;;;;2.89;75.80;100201.41;5073969;28;20469;-74
2022/03/30 00:15:03;;;;;;;0.40;0.30;;;;;;;2.89;75.61;100204.09;5073543;28;20445;-74
2022/03/30 00:17:31;;;;;;;0.40;0.30;;;;;;;2.84;74.98;100196.06;5073513;28;20442;-74
2022/03/30 00:19:59;;;;;;;0.40;0.30;;;;;;;2.90;75.21;100195.00;5073453;28;20469;-74
2022/03/30 00:22:26;;;;;;;0.40;0.30;;;;;;;2.72;74.84;100194.38;5073058;28;20998;-75
2022/03/30 00:24:53;;;;;;;0.40;0.30;;;;;;;2.64;75.64;100192.16;5073421;28;20473;-74
2022/03/30 00:27:19;;;;;;;0.40;0.30;;;;;;;2.66;75.33;100195.41;5073418;28;20442;-74
2022/03/30 00:29:46;;;;;;;0.40;0.40;;;;;;;2.61;74.90;100191.88;5073305;28;20487;-75
2022/03/30 00:32:14;;;;;;;0.40;0.40;;;;;;;2.39;75.41;100198.16;5073326;28;20920;-75
2022/03/30 00:34:40;;;;;;;0.40;0.30;;;;;;;2.37;74.99;100202.16;5073090;28;20437;-74
2022/03/30 00:37:07;;;;;;;0.40;0.40;;;;;;;2.39;75.97;100197.34;5073368;28;20441;-74
2022/03/30 00:39:33;;;;;;;0.40;0.30;;;;;;;2.37;77.67;100199.47;5072565;28;20449;-74
2022/03/30 00:42:00;;;;;;;0.40;0.30;;;;;;;2.49;77.78;100194.75;5073256;28;20468;-74
2022/03/30 00:44:26;;;;;;;0.40;0.30;;;;;;;2.58;76.12;100193.22;5073210;28;20852;-74
2022/03/30 00:46:53;;;;;;;0.40;0.30;;;;;;;2.41;76.45;100197.91;5072901;28;20935;-74
2022/03/30 00:49:20;;;;;;;0.40;0.30;;;;;;;2.36;76.31;100197.88;5073229;28;20441;-74
2022/03/30 00:51:47;;;;;;;0.40;0.30;;;;;;;2.32;75.76;100194.09;5072828;28;20457;-74
2022/03/30 00:54:13;;;;;;;0.40;0.30;;;;;;;2.22;75.89;100190.28;5073145;28;20441;-74
2022/03/30 00:56:43;;;;;;;0.40;0.30;;;;;;;2.13;77.54;100193.69;5073076;28;20458;-74
2022/03/30 00:59:09;;;;;;;0.40;0.30;;;;;;;2.04;77.61;100188.00;5072823;28;20969;-74
2022/03/30 01:01:36;;;;;;;0.40;0.30;;;;;;;2.07;77.31;100182.13;5072577;28;21008;-75
2022/03/30 01:04:03;;;;;;;0.40;0.30;;;;;;;2.11;77.25;100183.25;5072972;28;20485;-75
2022/03/30 01:06:31;;;;;;;0.40;0.30;;;;;;;2.15;76.21;100183.53;5072930;28;20434;-75
2022/03/30 01:08:58;;;;;;;0.40;0.30;;;;;;;2.00;77.52;100178.88;5072722;28;20806;-75
2022/03/30 01:11:25;;;;;;;0.40;0.30;;;;;;;1.94;78.25;100177.22;5072864;28;20476;-75
2022/03/30 01:13:51;;;;;;;0.40;0.30;;;;;;;1.92;78.96;100174.81;5072951;28;20434;-75
2022/03/30 01:16:18;;;;;;;0.40;0.30;;;;;;;1.86;78.43;100180.34;5072929;28;20947;-75
2022/03/30 01:18:44;;;;;;;0.40;0.30;;;;;;;1.87;79.24;100181.97;5072896;28;20441;-75
2022/03/30 01:21:13;;;;;;;0.40;0.30;;;;;;;1.78;79.54;100173.63;5072560;28;20458;-75
2022/03/30 01:23:39;;;;;;;0.40;0.30;;;;;;;1.74;81.34;100178.66;5072747;28;20489;-74
2022/03/30 01:26:07;;;;;;;0.40;0.30;;;;;;;1.82;81.50;100176.59;5072463;28;20795;-75
2022/03/30 01:28:34;;;;;;;0.40;0.30;;;;;;;1.86;80.57;100169.66;5072905;28;20559;-76
2022/03/30 01:33:46;;;;;;;0.40;0.30;;;;;;;1.88;80.81;100173.69;5072539;28;20409;-76
2022/03/30 01:36:17;;;;;;;0.40;0.40;;;;;;;1.93;80.69;100167.59;5072709;28;20441;-76
2022/03/30 01:38:44;;;;;;;0.40;0.30;;;;;;;2.02;79.97;100169.53;5072479;28;20501;-76
2022/03/30 01:41:12;;;;;;;0.40;0.30;;;;;;;2.16;79.23;100164.56;5072617;28;20465;-76
2022/03/30 01:43:38;;;;;;;0.40;0.30;;;;;;;2.11;78.76;100164.53;5072537;28;20493;-76
2022/03/30 01:46:05;;;;;;;0.40;0.30;;;;;;;2.02;79.85;100155.38;5072708;28;20885;-76
2022/03/30 01:48:32;;;;;;;0.40;0.30;;;;;;;2.00;79.86;100149.50;5072615;28;20448;-76
2022/03/30 01:50:59;;;;;;;0.40;0.30;;;;;;;1.95;79.02;100149.47;5073112;28;20500;-76
2022/03/30 01:53:27;;;;;;;0.40;0.30;;;;;;;1.82;77.90;100152.56;5076201;28;20489;-75
2022/03/30 01:55:53;;;;;;;0.40;0.40;;;;;;;1.77;78.29;100146.13;5076222;28;20441;-76
2022/03/30 01:58:20;;;;;;;0.40;0.30;;;;;;;1.66;78.14;100146.25;5076136;28;20437;-76
2022/03/30 02:00:47;;;;;;;0.40;0.30;;;;;;;1.62;78.55;100140.63;5075477;28;21000;-76
2022/03/30 02:03:14;;;;;;;0.40;0.30;;;;;;;1.63;78.81;100144.91;5076008;28;20477;-76
2022/03/30 02:05:41;;;;;;;0.40;0.30;;;;;;;1.70;78.92;100142.84;5076061;28;20544;-76
2022/03/30 02:08:07;;;;;;;0.40;0.30;;;;;;;1.63;78.76;100139.56;5075981;28;20442;-76
2022/03/30 02:10:35;;;;;;;0.40;0.30;;;;;;;1.51;79.23;100138.94;5075831;28;20461;-75
2022/03/30 02:13:02;;;;;;;0.40;0.30;;;;;;;1.48;79.05;100142.09;5075881;28;20444;-76
2022/03/30 02:15:29;;;;;;;0.40;0.30;;;;;;;1.43;80.06;100134.03;5075779;28;20825;-73
2022/03/30 02:17:56;;;;;;;0.40;0.30;;;;;;;1.42;80.18;100137.78;5075799;28;20503;-74
2022/03/30 02:20:22;;;;;;;0.40;0.30;;;;;;;1.46;79.03;100138.84;5075726;28;20460;-74
2022/03/30 02:22:49;;;;;;;0.40;0.30;;;;;;;1.31;79.13;100128.84;5075379;28;20477;-75
2022/03/30 02:25:15;;;;;;;0.40;0.30;;;;;;;1.24;79.28;100130.91;5075681;28;20445;-74
2022/03/30 02:27:43;;;;;;;0.40;0.30;;;;;;;1.25;81.00;100129.84;5075683;28;20445;-74
2022/03/30 02:30:10;;;;;;;0.40;0.30;;;;;;;1.21;80.12;100132.22;5075402;28;20552;-74
2022/03/30 02:32:37;;;;;;;0.40;0.30;;;;;;;1.32;80.30;100122.44;5075184;28;20820;-75
2022/03/30 02:35:04;;;;;;;0.40;0.30;;;;;;;1.43;79.70;100126.84;5075533;28;20468;-74
2022/03/30 02:37:30;;;;;;;0.40;0.30;;;;;;;1.39;79.32;100127.59;5075430;28;20437;-74
2022/03/30 02:39:57;;;;;;;0.40;0.30;;;;;;;1.37;79.13;100130.50;5075308;28;20465;-74
2022/03/30 02:42:23;;;;;;;0.40;0.30;;;;;;;1.25;79.87;100128.00;5075334;28;20448;-75
2022/03/30 02:44:51;;;;;;;0.40;0.30;;;;;;;1.23;81.88;100127.41;5074908;28;21017;-74
2022/03/30 02:48:17;;;;;;;0.40;0.30;;;;;;;1.38;81.71;100128.66;5074932;28;20437;-74
2022/03/30 02:50:05;;;;;;;0.40;0.30;;;;;;;1.51;81.26;100131.72;5074750;28;20458;-74
2022/03/30 02:52:32;;;;;;;1.67;1.57;;;;;;;1.62;80.88;100127.28;5075135;28;20441;-74
2022/03/30 02:54:58;;;;;;;0.40;0.30;;;;;;;1.60;81.10;100134.75;5075073;28;20468;-74
2022/03/30 02:57:25;;;;;;;0.43;0.30;;;;;;;1.63;80.98;100122.75;5075003;28;20437;-74
2022/03/30 02:59:52;;;;;;;0.40;0.30;;;;;;;1.60;81.76;100124.06;5074781;28;20461;-75
2022/03/30 03:02:19;;;;;;;0.40;0.30;;;;;;;1.62;81.55;100121.94;5074840;28;20429;-74
2022/03/30 03:04:46;;;;;;;0.70;0.30;;;;;;;1.62;81.81;100127.28;5074520;28;20485;-74
2022/03/30 03:07:14;;;;;;;0.40;0.30;;;;;;;1.65;80.95;100126.78;5074852;28;20524;-74
2022/03/30 03:09:41;;;;;;;0.40;0.30;;;;;;;1.75;80.53;100120.72;5074772;28;20441;-74
2022/03/30 03:12:08;;;;;;;0.40;0.30;;;;;;;1.83;80.26;100125.59;5074778;28;20444;-73
2022/03/30 03:14:34;;;;;;;0.40;0.30;;;;;;;1.81;79.62;100121.56;5074328;28;20953;-74
2022/03/30 03:17:02;;;;;;;0.40;0.30;;;;;;;1.84;77.50;100118.38;5074539;28;20809;-73
2022/03/30 03:19:29;;;;;;;0.40;0.30;;;;;;;1.64;77.96;100119.84;5074556;28;20563;-74
2022/03/30 03:21:55;;;;;;;0.40;0.30;;;;;;;1.43;78.99;100112.69;5074189;28;21003;-74
2022/03/30 03:24:22;;;;;;;0.40;0.30;;;;;;;1.28;79.31;100113.31;5074294;28;20496;-73
2022/03/30 03:26:50;;;;;;;0.40;0.30;;;;;;;1.26;80.31;100123.44;5074357;28;20441;-75
2022/03/30 03:29:16;;;;;;;0.40;0.30;;;;;;;1.26;80.79;100118.13;5074257;28;20492;-74
2022/03/30 03:31:43;;;;;;;0.40;0.30;;;;;;;1.35;80.67;100118.47;5073904;28;21028;-75
2022/03/30 03:34:12;;;;;;;0.40;0.30;;;;;;;1.21;79.73;100113.53;5074111;28;20440;-74
2022/03/30 03:36:38;;;;;;;0.40;0.30;;;;;;;1.18;79.95;100114.03;5074152;28;20457;-74
2022/03/30 03:39:05;;;;;;;0.40;0.30;;;;;;;1.08;80.10;100113.13;5073742;28;20943;-74
2022/03/30 03:41:31;;;;;;;0.40;0.30;;;;;;;1.17;80.58;100112.41;5073922;28;20485;-74
2022/03/30 03:43:58;;;;;;;0.40;0.30;;;;;;;1.22;81.97;100114.34;5073859;28;20853;-74
2022/03/30 03:46:24;;;;;;;0.40;0.30;;;;;;;1.26;82.46;100118.91;5074863;28;20978;-74
2022/03/30 03:48:51;;;;;;;0.40;0.30;;;;;;;1.22;81.95;100120.47;5073802;28;20498;-74
2022/03/30 03:51:19;;;;;;;0.40;0.30;;;;;;;1.29;81.73;100114.97;5073690;28;20465;-74
2022/03/30 03:53:45;;;;;;;0.40;0.30;;;;;;;1.31;81.33;100112.84;5073254;28;20947;-74
2022/03/30 03:56:11;;;;;;;0.40;0.30;;;;;;;1.35;80.81;100113.13;5073633;28;20445;-74
2022/03/30 03:58:38;;;;;;;0.60;0.40;;;;;;;1.22;79.93;100107.13;5073698;28;20855;-71
2022/03/30 04:01:04;;;;;;;0.40;0.30;;;;;;;1.16;80.94;100121.50;5073131;28;21013;-71
2022/03/30 04:03:31;;;;;;;0.40;0.30;;;;;;;1.06;80.75;100118.69;5073428;28;20894;-74
2022/03/30 04:05:57;;;;;;;0.40;0.30;;;;;;;1.10;81.04;100125.13;5073190;28;20953;-76
2022/03/30 04:08:26;;;;;;;0.40;0.30;;;;;;;1.13;81.28;100111.31;5073463;28;20457;-75
2022/03/30 04:10:52;;;;;;;0.40;0.30;;;;;;;1.13;81.58;100121.97;5073390;28;20461;-76
2022/03/30 04:13:18;;;;;;;0.40;0.30;;;;;;;1.09;80.50;100120.06;5073167;28;20445;-75
2022/03/30 04:15:45;;;;;;;0.40;0.30;;;;;;;1.05;81.43;100117.09;5072415;28;20453;-75
2022/03/30 04:18:11;;;;;;;0.40;0.30;;;;;;;1.19;81.52;100118.31;5073488;28;20443;-76
2022/03/30 04:20:42;;;;;;;0.40;0.30;;;;;;;1.27;81.73;100114.38;5073429;28;20473;-76
2022/03/30 04:23:08;;;;;;;1.23;1.23;;;;;;;1.34;81.02;100114.22;5073594;28;20503;-76
2022/03/30 04:25:36;;;;;;;0.40;0.30;;;;;;;1.47;80.83;100103.13;5073384;28;20461;-75
2022/03/30 04:28:03;;;;;;;0.40;0.30;;;;;;;1.48;80.60;100108.19;5073127;28;20449;-76
2022/03/30 04:30:30;;;;;;;0.73;0.73;;;;;;;1.55;80.27;100104.50;5073213;28;20479;-75
2022/03/30 04:32:56;;;;;;;0.40;0.30;;;;;;;1.55;79.93;100099.16;5073003;28;20442;-75
2022/03/30 04:35:25;;;;;;;1.17;1.17;;;;;;;1.56;79.73;100098.94;5073007;28;20437;-75
2022/03/30 04:37:52;;;;;;;0.40;0.30;;;;;;;1.58;80.25;100096.00;5073084;28;20445;-75
2022/03/30 04:40:18;;;;;;;0.40;0.30;;;;;;;1.59;80.83;100097.63;5072881;28;20887;-75
2022/03/30 04:42:46;;;;;;;0.40;0.30;;;;;;;1.57;81.76;100095.19;5072900;28;20876;-75
2022/03/30 04:45:13;;;;;;;0.40;0.30;;;;;;;1.65;81.21;100094.75;5072787;28;20492;-74
2022/03/30 04:47:39;;;;;;;0.40;0.30;;;;;;;1.65;81.13;100094.75;5072792;28;20449;-75
2022/03/30 04:50:06;;;;;;;0.40;0.30;;;;;;;1.59;82.10;100094.94;5072726;28;20492;-73
2022/03/30 04:52:32;;;;;;;0.40;0.30;;;;;;;1.54;82.90;100097.56;5072670;28;20438;-74
2022/03/30 04:54:59;;;;;;;33.30;9.30;;;;;;;1.63;82.40;100099.53;5072548;28;20472;-74
2022/03/30 04:57:25;;;;;;;0.40;0.30;;;;;;;1.77;81.71;100098.06;5072730;28;20433;-71
2022/03/30 04:59:53;;;;;;;0.53;0.50;;;;;;;1.88;80.74;100093.59;5072368;28;20465;-71
2022/03/30 05:02:20;;;;;;;0.40;0.30;;;;;;;1.97;80.46;100093.94;5072509;28;20437;-76
2022/03/30 05:04:46;;;;;;;0.40;0.30;;;;;;;1.84;81.44;100100.50;5072931;28;20481;-76
2022/03/30 05:07:14;;;;;;;0.40;0.40;;;;;;;1.63;81.65;100096.84;5072638;28;20445;-74
2022/03/30 05:09:40;;;;;;;0.40;0.30;;;;;;;1.69;81.98;100095.84;5072361;28;20871;-72
2022/03/30 05:12:08;;;;;;;0.40;0.30;;;;;;;1.76;81.43;100099.09;5072582;28;20433;-72
2022/03/30 05:14:34;;;;;;;4.47;4.23;;;;;;;1.82;80.51;100102.63;5072472;28;20444;-72
2022/03/30 05:17:03;;;;;;;0.40;0.30;;;;;;;1.75;80.85;100102.03;5072484;28;20448;-71
2022/03/30 05:19:29;;;;;;;0.67;0.67;;;;;;;1.72;80.81;100099.84;5072312;28;20440;-72
2022/03/30 05:21:56;;;;;;;0.40;0.30;;;;;;;1.85;80.61;100103.97;5072111;28;20456;-72
2022/03/30 05:24:22;;;;;;;0.40;0.30;;;;;;;1.96;80.15;100103.81;5072453;28;20895;-72
2022/03/30 05:26:49;;;;;;;0.40;0.30;;;;;;;1.99;80.13;100105.13;5074445;28;20441;-72
2022/03/30 05:29:15;;;;;;;0.40;0.30;;;;;;;1.92;81.43;100096.56;5076300;28;20449;-72
2022/03/30 05:31:42;;;;;;;0.40;0.30;;;;;;;1.90;82.50;100096.78;5076211;28;20862;-72
2022/03/30 05:34:10;;;;;;;0.40;0.30;;;;;;;1.87;82.40;100097.31;5076189;28;20441;-72
2022/03/30 05:36:36;;;;;;;0.40;0.30;;;;;;;1.99;81.94;100099.81;5076080;28;20441;-73
2022/03/30 05:39:03;;;;;;;0.40;0.30;;;;;;;2.05;81.90;100098.78;5075935;28;20954;-73
2022/03/30 05:41:30;;;;;;;0.60;0.60;;;;;;;2.13;81.23;100095.66;5076251;28;20460;-73
2022/03/30 05:43:56;;;;;;;0.40;0.30;;;;;;;2.21;80.65;100097.00;5076595;28;20515;-72
2022/03/30 05:46:23;;;;;;;0.40;0.30;;;;;;;2.28;80.92;100101.06;5076130;28;20437;-73
2022/03/30 05:48:49;;;;;;;0.40;0.30;;;;;;;2.35;81.24;100105.41;5076104;28;20448;-73
2022/03/30 05:51:17;;;;;;;0.40;0.30;;;;;;;2.42;80.56;100100.63;5075958;28;20461;-73
2022/03/30 05:53:44;;;;;;;0.40;0.30;;;;;;;2.45;80.67;100092.09;5076000;28;20448;-73
2022/03/30 05:56:10;;;;;;;0.40;0.30;;;;;;;2.47;81.27;100097.97;5076051;28;20544;-73
2022/03/30 05:58:37;;;;;;;0.40;0.30;;;;;;;2.53;79.66;100091.59;5075615;28;20961;-73
2022/03/30 06:01:04;;;;;;;0.40;0.30;;;;;;;2.79;79.68;100097.88;5075662;28;20477;-71
2022/03/30 06:03:30;;;;;;;0.40;0.30;;;;;;;3.05;79.58;100104.09;5075964;28;20434;-71
2022/03/30 06:05:57;;;;;;;0.40;0.30;;;;;;;3.21;80.38;100092.38;5075974;28;20445;-72
2022/03/30 06:08:24;;;;;;;2.60;2.40;;;;;;;3.21;81.76;100095.06;5075809;28;20460;-75
2022/03/30 06:10:51;;;;;;;0.40;0.30;;;;;;;3.29;81.58;100099.91;5075420;28;20502;-76
2022/03/30 06:13:17;;;;;;;0.40;0.30;;;;;;;3.55;80.92;100091.91;5075614;28;20942;-75
2022/03/30 06:15:44;;;;;;;0.40;0.40;;;;;;;3.52;81.05;100095.13;5076036;28;20433;-75
2022/03/30 06:18:11;;;;;;;0.40;0.30;;;;;;;3.58;81.60;100090.56;5075581;28;20448;-74
2022/03/30 06:20:39;;;;;;;0.40;0.30;;;;;;;3.70;80.81;100089.22;5075640;28;20524;-75
2022/03/30 06:23:06;;;;;;;0.40;0.30;;;;;;;3.79;81.14;100090.28;5075601;28;20895;-76
2022/03/30 06:25:33;;;;;;;0.40;0.30;;;;;;;4.03;79.97;100090.56;5076749;28;20520;-78
2022/03/30 06:28:01;;;;;;;0.40;0.30;;;;;;;4.20;79.18;100087.56;5077290;28;20449;-77
2022/03/30 06:30:27;;;;;;;0.40;0.30;;;;;;;4.21;78.25;100085.72;5076365;28;20461;-75
2022/03/30 06:32:54;;;;;;;0.40;0.30;;;;;;;4.22;78.18;100092.69;5076634;28;20442;-78
2022/03/30 06:35:21;;;;;;;0.40;0.30;;;;;;;4.37;77.58;100095.31;5076385;28;20989;-79
2022/03/30 06:37:48;;;;;;;0.47;0.37;;;;;;;4.46;77.14;100085.63;5075305;28;20430;-79
2022/03/30 06:40:17;;;;;;;0.40;0.30;;;;;;;4.57;77.35;100082.94;5076792;28;20456;-80
2022/03/30 06:42:45;;;;;;;0.40;0.30;;;;;;;4.61;77.29;100084.00;5076767;28;20528;-78
2022/03/30 06:45:12;;;;;;;0.40;0.40;;;;;;;4.70;76.85;100077.81;5076914;28;20481;-78
2022/03/30 06:47:39;;;;;;;0.40;0.30;;;;;;;4.77;76.22;100082.84;5076355;28;20444;-78
2022/03/30 06:50:07;;;;;;;0.40;0.30;;;;;;;4.79;75.83;100086.88;5075416;28;20465;-74
2022/03/30 06:52:35;;;;;;;0.40;0.30;;;;;;;4.89;76.42;100077.97;5075877;28;20441;-77
2022/03/30 06:55:02;;;;;;;0.40;0.30;;;;;;;5.04;76.06;100088.63;5076304;28;20472;-77
2022/03/30 06:57:29;;;;;;;0.40;0.30;;;;;;;5.19;74.55;100082.38;5076682;28;20442;-78
2022/03/30 06:59:56;;;;;;;0.40;0.30;;;;;;;5.31;73.73;100080.19;5077652;28;20511;-77
2022/03/30 07:02:23;;;;;;;0.40;0.30;;;;;;;5.37;72.53;100077.47;5075985;28;20425;-76
2022/03/30 07:04:50;;;;;;;0.40;0.30;;;;;;;5.42;71.51;100075.53;5075236;28;20841;-76
2022/03/30 07:10:18;;;;;;;0.40;0.30;;;;;;;5.58;72.64;100073.56;5074825;28;20522;-75
2022/03/30 07:12:46;;;;;;;0.40;0.30;;;;;;;5.68;72.24;100076.16;5074791;28;20439;-75
2022/03/30 07:15:15;;;;;;;0.40;0.30;;;;;;;5.76;72.16;100072.06;5074597;28;20515;-76
2022/03/30 07:17:46;;;;;;;0.40;0.30;;;;;;;5.85;72.23;100069.56;5074222;28;20436;-76
2022/03/30 07:20:13;;;;;;;0.40;0.30;;;;;;;5.87;72.33;100059.34;5074619;28;20461;-75
2022/03/30 07:22:40;;;;;;;0.40;0.30;;;;;;;5.95;72.57;100067.63;5074713;28;20453;-75
2022/03/30 07:25:07;;;;;;;0.40;0.30;;;;;;;6.03;72.74;100066.22;5074073;28;21041;-76
2022/03/30 07:27:40;;;;;;;0.40;0.30;;;;;;;6.09;72.42;100054.31;5074398;28;20450;-75
2022/03/30 07:30:08;;;;;;;0.83;0.83;;;;;;;6.14;71.86;100056.94;5074367;28;20469;-75
2022/03/30 07:32:38;;;;;;;0.40;0.30;;;;;;;6.12;71.59;100064.50;5074290;28;20454;-75
2022/03/30 07:35:05;;;;;;;0.40;0.30;;;;;;;6.25;70.88;100068.41;5074294;28;20445;-76
2022/03/30 07:37:32;;;;;;;0.40;0.30;;;;;;;6.41;70.90;100063.66;5073825;28;20600;-76
2022/03/30 07:39:59;;;;;;;0.60;0.40;;;;;;;6.53;70.73;100064.06;5074272;28;20472;-77
2022/03/30 07:42:26;;;;;;;0.40;0.30;;;;;;;6.63;70.80;100073.91;5074618;28;20449;-78
2022/03/30 07:44:52;;;;;;;0.57;0.57;;;;;;;6.75;69.34;100072.41;5074354;28;20928;-77
2022/03/30 07:47:19;;;;;;;0.40;0.30;;;;;;;6.88;68.08;100075.50;5075408;28;20452;-78
2022/03/30 07:49:47;;;;;;;0.40;0.30;;;;;;;7.05;67.32;100076.59;5074978;28;20476;-80
2022/03/30 07:52:14;;;;;;;0.40;0.30;;;;;;;7.23;66.31;100079.59;5075862;28;20528;-79
2022/03/30 07:54:41;;;;;;;0.40;0.30;;;;;;;7.43;64.55;100081.97;5075028;28;20859;-79
2022/03/30 07:57:07;;;;;;;0.40;0.30;;;;;;;7.64;63.62;100073.59;5075123;28;20442;-79
2022/03/30 07:59:34;;;;;;;0.40;0.30;;;;;;;7.77;63.79;100068.25;5074890;28;20452;-79
2022/03/30 08:02:00;;;;;;;0.40;0.30;;;;;;;7.80;63.15;100064.19;5074618;28;20840;-79
2022/03/30 08:04:27;;;;;;;0.40;0.30;;;;;;;7.87;63.32;100066.47;5074618;28;20456;-79
2022/03/30 08:06:55;;;;;;;0.40;0.30;;;;;;;7.89;62.24;100064.31;5075280;28;20452;-80
2022/03/30 08:09:21;;;;;;;0.40;0.30;;;;;;;7.79;62.77;100078.72;5075199;28;20444;-80
2022/03/30 08:11:48;;;;;;;0.40;0.30;;;;;;;7.91;62.30;100072.88;5075720;28;20458;-81
2022/03/30 08:14:14;;;;;;;0.40;0.30;;;;;;;8.07;63.01;100071.53;5075613;28;20438;-79
2022/03/30 08:16:41;;;;;;;0.40;0.30;;;;;;;8.13;62.29;100067.63;5075026;28;20445;-79
2022/03/30 08:19:08;;;;;;;0.40;0.30;;;;;;;8.28;60.69;100067.38;5075795;28;20544;-79
2022/03/30 08:24:21;;;;;;;0.40;0.30;;;;;;;8.39;61.26;100059.91;5075148;28;20452;-79
2022/03/30 08:26:48;;;;;;;0.40;0.30;;;;;;;8.57;61.39;100060.91;5075543;28;20445;-80
2022/03/30 08:29:16;;;;;;;0.40;0.30;;;;;;;8.73;60.76;100062.22;5074844;28;20440;-80
2022/03/30 08:31:42;;;;;;;0.40;0.30;;;;;;;8.78;59.32;100061.31;5074395;28;20970;-80
2022/03/30 08:34:09;;;;;;;0.40;0.30;;;;;;;8.91;58.72;100070.50;5074496;28;20453;-75
2022/03/30 08:36:36;;;;;;;0.40;0.30;;;;;;;9.03;57.50;100066.16;5073349;28;20437;-73
2022/03/30 08:39:05;;;;;;;0.40;0.30;;;;;;;9.11;56.97;100059.22;5073487;28;20494;-75
2022/03/30 08:41:34;;;;;;;0.40;0.30;;;;;;;9.26;57.22;100063.50;5073228;28;20472;-77
2022/03/30 08:44:00;;;;;;;0.40;0.40;;;;;;;9.31;57.21;100064.19;5075253;28;20969;-77
2022/03/30 08:46:26;;;;;;;0.40;0.30;;;;;;;9.41;57.64;100067.75;5075366;28;20478;-77
2022/03/30 08:48:53;;;;;;;0.40;0.30;;;;;;;9.57;56.61;100066.31;5075829;28;20503;-77
2022/03/30 08:51:22;;;;;;;0.40;0.30;;;;;;;9.69;56.52;100063.03;5075026;28;20472;-77
2022/03/30 08:53:49;;;;;;;0.40;0.30;;;;;;;9.78;55.07;100064.72;5075338;28;20445;-77
2022/03/30 08:56:17;;;;;;;0.40;0.30;;;;;;;9.87;55.06;100059.31;5075395;28;20437;-77
2022/03/30 08:58:45;;;;;;;0.40;0.30;;;;;;;9.98;54.83;100062.59;5073785;28;20449;-76
2022/03/30 09:01:12;;;;;;;0.40;0.20;;;;;;;9.93;53.53;100063.53;5075728;28;20480;-77
2022/03/30 09:03:55;;;;;;;0.40;0.30;;;;;;;10.10;52.41;100062.81;5079698;28;20543;-77
2022/03/30 09:06:29;;;;;;;0.40;0.30;;;;;;;10.18;52.49;100056.66;5079788;28;20462;-77
2022/03/30 09:08:57;;;;;;;0.40;0.30;;;;;;;10.30;52.16;100061.50;5079776;28;20461;-76
2022/03/30 09:11:27;;;;;;;0.40;0.30;;;;;;;10.31;51.68;100063.09;5079559;28;20485;-77
2022/03/30 09:14:05;;;;;;;0.40;0.30;;;;;;;10.40;51.56;100063.94;5080062;28;20430;-77
2022/03/30 09:16:38;;;;;;;0.40;0.30;;;;;;;10.42;49.49;100052.81;5079967;28;20491;-77
2022/03/30 09:19:06;;;;;;;0.40;0.30;;;;;;;10.38;49.21;100049.13;5079409;28;20429;-77
2022/03/30 09:21:46;;;;;;;0.40;0.30;;;;;;;10.13;48.91;100048.66;5078412;28;20468;-76
2022/03/30 09:24:14;;;;;;;2.77;2.57;;;;;;;10.02;48.66;100045.44;5079318;28;20920;-77
2022/03/30 09:26:42;;;;;;;0.40;0.30;;;;;;;10.05;49.47;100052.13;5078618;28;20526;-76
2022/03/30 09:29:10;;;;;;;0.40;0.30;;;;;;;10.24;49.54;100055.44;5079453;28;20452;-76
2022/03/30 09:31:38;;;;;;;0.40;0.30;;;;;;;10.40;49.05;100047.69;5078553;28;20465;-77
2022/03/30 09:34:07;;;;;;;0.40;0.20;;;;;;;10.58;48.10;100052.06;5078941;28;20536;-77
2022/03/30 09:36:35;;;;;;;0.77;0.53;;;;;;;10.58;47.77;100045.84;5079734;28;20452;-76
2022/03/30 09:39:02;;;;;;;0.40;0.30;;;;;;;10.70;47.15;100043.31;5079620;28;20441;-77
2022/03/30 09:41:48;;;;;;;0.40;0.30;;;;;;;10.71;47.23;100039.50;5079033;28;21001;-77
2022/03/30 09:44:16;;;;;;;0.40;0.30;;;;;;;10.71;48.25;100039.50;5079978;28;20476;-77
2022/03/30 09:46:56;;;;;;;0.40;0.30;;;;;;;10.82;47.63;100040.00;5095318;22;20855;-72
2022/03/30 09:49:37;;;;;;;0.40;0.30;;;;;;;10.73;47.65;100036.50;5036471;28;20438;-71
2022/03/30 09:52:20;;;;;;;0.40;0.30;;;;;;;10.86;48.07;100041.78;5036381;28;20447;-70
2022/03/30 09:54:49;;;;;;;0.40;0.30;;;;;;;10.68;48.12;100039.34;5036354;28;20824;-71
2022/03/30 09:57:20;;;;;;;0.40;0.30;;;;;;;10.72;48.11;100029.47;5036259;28;20469;-71
2022/03/30 10:00:00;;;;;;;0.40;0.30;;;;;;;10.40;47.75;100033.34;5035968;28;20893;-71
2022/03/30 10:02:28;;;;;;;0.40;0.30;;;;;;;10.17;48.79;100030.69;5036219;28;20426;-72
2022/03/30 10:04:55;;;;;;;0.40;0.30;;;;;;;10.03;50.77;100030.00;5036168;28;20443;-71
2022/03/30 10:07:22;;;;;;;0.40;0.27;;;;;;;10.30;50.52;100024.41;5036023;28;20498;-71
2022/03/30 10:09:49;;;;;;;0.40;0.30;;;;;;;10.42;48.96;100026.53;5036113;28;20533;-71
2022/03/30 10:12:17;;;;;;;0.40;0.30;;;;;;;10.46;48.76;100027.50;5036073;28;20814;-71
2022/03/30 10:14:44;;;;;;;0.40;0.27;;;;;;;10.70;49.19;100021.66;5035678;28;20959;-70
2022/03/30 10:17:13;;;;;;;0.40;0.23;;;;;;;10.90;48.03;100019.47;5035836;28;20463;-70
2022/03/30 10:19:42;;;;;;;0.40;0.30;;;;;;;11.05;47.33;100013.56;5035720;28;20539;-72
2022/03/30 10:22:26;;;;;;;0.40;0.30;;;;;;;11.10;47.04;100014.22;5035873;28;20577;-72
2022/03/30 10:25:03;;;;;;;0.40;0.30;;;;;;;11.11;46.87;100013.13;5035828;28;20431;-68
2022/03/30 10:27:45;;;;;;;0.40;0.20;;;;;;;11.16;47.90;100012.16;5035417;28;20451;-70
2022/03/30 10:30:12;;;;;;;0.40;0.30;;;;;;;11.10;47.33;100014.22;5035882;28;20432;-68
2022/03/30 10:32:41;;;;;;;0.50;0.50;;;;;;;11.22;47.08;100018.22;5035720;28;20447;-68
2022/03/30 10:35:10;;;;;;;0.40;0.30;;;;;;;11.39;46.48;100009.28;5035364;28;20423;-68
2022/03/30 10:37:38;;;;;;;0.40;0.30;;;;;;;11.57;46.04;100008.13;5035256;28;20536;-70
2022/03/30 10:40:18;;;;;;;0.40;0.30;;;;;;;12.00;44.44;100008.06;5035514;28;20443;-68
2022/03/30 10:43:24;;;;;;;0.40;0.30;;;;;;;12.32;43.52;100009.38;5035459;28;20434;-72
2022/03/30 10:45:57;;;;;;;0.40;0.30;;;;;;;12.43;43.30;100004.34;5035315;28;20467;-63
2022/03/30 10:48:37;;;;;;;0.40;0.30;;;;;;;12.18;41.29;100011.50;5034978;28;20470;-69
2022/03/30 10:51:16;;;;;;;0.40;0.30;;;;;;;11.88;41.34;99999.00;5035523;28;20431;-72
2022/03/30 10:53:46;;;;;;;0.40;0.30;;;;;;;12.12;41.01;100001.94;5035455;28;20424;-71
2022/03/30 10:56:28;;;;;;;0.40;0.20;;;;;;;12.41;42.50;100000.38;5035353;28;20439;-71
2022/03/30 10:59:14;;;;;;;0.40;0.30;;;;;;;12.76;43.17;99990.13;5035317;28;20431;-70
2022/03/30 11:01:41;;;;;;;0.40;0.30;;;;;;;12.88;41.86;99996.44;5035263;28;20434;-72
2022/03/30 11:04:21;;;;;;;0.40;0.30;;;;;;;12.91;42.04;99996.88;5035253;28;20439;-70
2022/03/30 11:07:38;;;;;;;0.40;0.30;;;;;;;12.60;41.35;99987.97;5034916;28;20536;-71
2022/03/30 11:10:29;;;;;;;0.40;0.30;;;;;;;12.28;42.66;99994.84;5035010;28;20439;-71
2022/03/30 11:12:57;;;;;;;0.40;0.20;;;;;;;12.23;43.26;99988.81;5035008;28;20431;-70
2022/03/30 11:15:24;;;;;;;0.40;0.30;;;;;;;11.48;42.49;99991.09;5034511;28;20518;-72
2022/03/30 11:17:51;;;;;;;0.40;0.20;;;;;;;11.50;43.50;99994.25;5034507;28;21003;-71
2022/03/30 11:20:19;;;;;;;0.40;0.30;;;;;;;11.76;43.49;99989.56;5034789;28;20443;-70
2022/03/30 11:22:47;;;;;;;0.40;0.30;;;;;;;11.99;43.30;99990.16;5034739;28;20446;-69
2022/03/30 11:25:18;;;;;;;1.63;1.53;;;;;;;11.93;42.10;99979.81;5034288;28;20860;-71
2022/03/30 11:27:45;;;;;;;0.40;0.30;;;;;;;11.53;42.10;99974.63;5034673;28;20487;-69
2022/03/30 11:30:15;;;;;;;0.40;0.30;;;;;;;11.39;44.57;99976.75;5034568;28;20447;-66
2022/03/30 11:32:55;;;;;;;0.40;0.30;;;;;;;11.23;43.00;99974.50;5034465;28;20466;-68
2022/03/30 11:35:28;;;;;;;0.40;0.30;;;;;;;11.36;44.17;99983.59;5034512;28;20466;-68
2022/03/30 11:38:21;;;;;;;0.40;0.30;;;;;;;11.41;44.17;99978.00;5034480;28;20467;-68
2022/03/30 11:40:49;;;;;;;0.40;0.30;;;;;;;11.48;44.21;99980.25;5020152;28;20557;-69
2022/03/30 11:43:18;;;;;;;0.40;0.30;;;;;;;11.39;44.47;99971.31;5034300;28;20486;-68
2022/03/30 11:45:46;;;;;;;0.40;0.30;;;;;;;11.36;45.35;99973.53;5034085;28;20479;-66